sensor_id;sensor_type;location;lat;lon;timestamp;P1;durP1;ratioP1;P2;durP2;ratioP2
25715;SDS011;13573;50.936;4.328;2022-10-18T00:02:14;9.33;;;6.47;;
25715;SDS011;13573;50.936;4.328;2022-10-18T00:04:43;9.37;;;6.53;;
25715;SDS011;13573;50.936;4.328;2022-10-18T00:07:10;9.20;;;6.10;;
25715;SDS011;13573;50.936;4.328;2022-10-18T00:09:37;10.10;;;6.23;;
25715;SDS011;13573;50.936;4.328;2022-10-18T00:12:04;8.17;;;6.03;;
25715;SDS011;13573;50.936;4.328;2022-10-18T00:14:31;13.43;;;7.10;;
25715;SDS011;13573;50.936;4.328;2022-10-18T00:16:59;11.00;;;8.50;;
25715;SDS011;13573;50.936;4.328;2022-10-18T00:19:29;11.10;;;7.70;;
25715;SDS011;13573;50.936;4.328;2022-10-18T00:21:55;8.83;;;6.70;;
25715;SDS011;13573;50.936;4.328;2022-10-18T00:24:22;12.33;;;7.23;;
25715;SDS011;13573;50.936;4.328;2022-10-18T00:26:48;10.73;;;8.03;;
25715;SDS011;13573;50.936;4.328;2022-10-18T00:29:15;10.60;;;6.63;;
25715;SDS011;13573;50.936;4.328;2022-10-18T00:31:43;12.73;;;7.50;;
25715;SDS011;13573;50.936;4.328;2022-10-18T00:34:11;14.60;;;8.50;;
25715;SDS011;13573;50.936;4.328;2022-10-18T00:36:41;9.73;;;7.93;;
25715;SDS011;13573;50.936;4.328;2022-10-18T00:39:13;14.30;;;9.03;;
25715;SDS011;13573;50.936;4.328;2022-10-18T00:41:42;9.83;;;7.20;;
25715;SDS011;13573;50.936;4.328;2022-10-18T00:45:16;10.37;;;7.10;;
25715;SDS011;13573;50.936;4.328;2022-10-18T00:47:11;9.33;;;7.63;;
25715;SDS011;13573;50.936;4.328;2022-10-18T00:49:41;10.30;;;8.03;;
25715;SDS011;13573;50.936;4.328;2022-10-18T00:52:17;12.90;;;8.90;;
25715;SDS011;13573;50.936;4.328;2022-10-18T00:54:51;11.30;;;8.10;;
25715;SDS011;13573;50.936;4.328;2022-10-18T00:57:19;10.17;;;7.77;;
25715;SDS011;13573;50.936;4.328;2022-10-18T00:59:46;13.30;;;9.50;;
25715;SDS011;13573;50.936;4.328;2022-10-18T01:02:13;19.37;;;10.10;;
25715;SDS011;13573;50.936;4.328;2022-10-18T01:04:44;12.30;;;8.67;;
25715;SDS011;13573;50.936;4.328;2022-10-18T01:07:17;12.93;;;8.90;;
25715;SDS011;13573;50.936;4.328;2022-10-18T01:12:32;12.17;;;8.63;;
25715;SDS011;13573;50.936;4.328;2022-10-18T01:15:10;11.23;;;7.80;;
25715;SDS011;13573;50.936;4.328;2022-10-18T01:23:51;11.20;;;6.93;;
25715;SDS011;13573;50.936;4.328;2022-10-18T01:26:33;10.50;;;8.00;;
25715;SDS011;13573;50.936;4.328;2022-10-18T01:29:13;11.63;;;7.43;;
25715;SDS011;13573;50.936;4.328;2022-10-18T01:32:00;11.30;;;8.37;;
25715;SDS011;13573;50.936;4.328;2022-10-18T01:34:32;11.03;;;7.33;;
25715;SDS011;13573;50.936;4.328;2022-10-18T01:37:02;9.80;;;7.20;;
25715;SDS011;13573;50.936;4.328;2022-10-18T01:39:40;10.93;;;7.53;;
25715;SDS011;13573;50.936;4.328;2022-10-18T01:42:12;10.80;;;7.90;;
25715;SDS011;13573;50.936;4.328;2022-10-18T01:44:42;13.50;;;9.47;;
25715;SDS011;13573;50.936;4.328;2022-10-18T01:47:12;14.30;;;8.63;;
25715;SDS011;13573;50.936;4.328;2022-10-18T01:49:45;11.27;;;7.70;;
25715;SDS011;13573;50.936;4.328;2022-10-18T01:52:13;13.47;;;9.40;;
25715;SDS011;13573;50.936;4.328;2022-10-18T01:54:41;12.10;;;8.80;;
25715;SDS011;13573;50.936;4.328;2022-10-18T02:05:12;11.73;;;7.93;;
25715;SDS011;13573;50.936;4.328;2022-10-18T02:07:52;10.10;;;8.03;;
25715;SDS011;13573;50.936;4.328;2022-10-18T02:10:24;9.47;;;8.00;;
25715;SDS011;13573;50.936;4.328;2022-10-18T02:12:57;13.47;;;8.00;;
25715;SDS011;13573;50.936;4.328;2022-10-18T02:15:28;15.37;;;8.93;;
25715;SDS011;13573;50.936;4.328;2022-10-18T02:17:56;13.27;;;9.03;;
25715;SDS011;13573;50.936;4.328;2022-10-18T02:20:23;11.90;;;8.13;;
25715;SDS011;13573;50.936;4.328;2022-10-18T02:22:53;11.07;;;8.43;;
25715;SDS011;13573;50.936;4.328;2022-10-18T02:25:22;12.10;;;8.00;;
25715;SDS011;13573;50.936;4.328;2022-10-18T02:27:52;14.20;;;9.90;;
25715;SDS011;13573;50.936;4.328;2022-10-18T02:30:20;13.07;;;8.17;;
25715;SDS011;13573;50.936;4.328;2022-10-18T02:32:56;14.63;;;9.63;;
25715;SDS011;13573;50.936;4.328;2022-10-18T02:35:28;19.23;;;10.90;;
25715;SDS011;13573;50.936;4.328;2022-10-18T02:37:57;18.67;;;12.93;;
25715;SDS011;13573;50.936;4.328;2022-10-18T02:40:24;16.77;;;12.17;;
25715;SDS011;13573;50.936;4.328;2022-10-18T02:42:53;20.47;;;13.13;;
25715;SDS011;13573;50.936;4.328;2022-10-18T02:45:21;19.63;;;11.77;;
25715;SDS011;13573;50.936;4.328;2022-10-18T02:47:50;21.17;;;13.63;;
25715;SDS011;13573;50.936;4.328;2022-10-18T02:50:18;18.20;;;12.07;;
25715;SDS011;13573;50.936;4.328;2022-10-18T02:52:45;17.90;;;11.97;;
25715;SDS011;13573;50.936;4.328;2022-10-18T02:55:12;15.80;;;11.63;;
25715;SDS011;13573;50.936;4.328;2022-10-18T02:57:38;15.83;;;11.20;;
25715;SDS011;13573;50.936;4.328;2022-10-18T03:00:05;17.70;;;12.50;;
25715;SDS011;13573;50.936;4.328;2022-10-18T03:02:36;25.40;;;13.67;;
25715;SDS011;13573;50.936;4.328;2022-10-18T03:05:03;19.17;;;12.07;;
25715;SDS011;13573;50.936;4.328;2022-10-18T03:07:32;16.33;;;11.57;;
25715;SDS011;13573;50.936;4.328;2022-10-18T03:09:59;17.07;;;12.13;;
25715;SDS011;13573;50.936;4.328;2022-10-18T03:12:26;21.10;;;13.30;;
25715;SDS011;13573;50.936;4.328;2022-10-18T03:14:57;13.20;;;10.43;;
25715;SDS011;13573;50.936;4.328;2022-10-18T03:17:24;25.90;;;15.73;;
25715;SDS011;13573;50.936;4.328;2022-10-18T03:19:53;27.57;;;15.40;;
25715;SDS011;13573;50.936;4.328;2022-10-18T03:22:21;26.70;;;17.23;;
25715;SDS011;13573;50.936;4.328;2022-10-18T03:24:50;25.83;;;15.87;;
25715;SDS011;13573;50.936;4.328;2022-10-18T03:27:17;30.30;;;18.67;;
25715;SDS011;13573;50.936;4.328;2022-10-18T03:29:45;27.80;;;17.67;;
25715;SDS011;13573;50.936;4.328;2022-10-18T03:32:11;23.57;;;15.47;;
25715;SDS011;13573;50.936;4.328;2022-10-18T03:34:38;21.00;;;15.23;;
25715;SDS011;13573;50.936;4.328;2022-10-18T03:37:05;26.43;;;16.87;;
25715;SDS011;13573;50.936;4.328;2022-10-18T03:39:31;30.70;;;17.13;;
25715;SDS011;13573;50.936;4.328;2022-10-18T03:41:58;32.23;;;17.80;;
25715;SDS011;13573;50.936;4.328;2022-10-18T03:44:25;20.23;;;13.97;;
25715;SDS011;13573;50.936;4.328;2022-10-18T03:46:52;32.63;;;18.30;;
25715;SDS011;13573;50.936;4.328;2022-10-18T03:49:19;30.70;;;18.77;;
25715;SDS011;13573;50.936;4.328;2022-10-18T03:51:45;29.23;;;17.30;;
25715;SDS011;13573;50.936;4.328;2022-10-18T03:54:12;29.10;;;16.80;;
25715;SDS011;13573;50.936;4.328;2022-10-18T03:56:38;34.07;;;19.47;;
25715;SDS011;13573;50.936;4.328;2022-10-18T03:59:05;33.17;;;19.67;;
25715;SDS011;13573;50.936;4.328;2022-10-18T04:01:32;24.43;;;16.40;;
25715;SDS011;13573;50.936;4.328;2022-10-18T04:03:58;26.77;;;17.67;;
25715;SDS011;13573;50.936;4.328;2022-10-18T04:06:25;40.07;;;20.90;;
25715;SDS011;13573;50.936;4.328;2022-10-18T04:08:53;31.50;;;19.00;;
25715;SDS011;13573;50.936;4.328;2022-10-18T04:11:21;34.27;;;20.20;;
25715;SDS011;13573;50.936;4.328;2022-10-18T04:13:48;32.60;;;19.13;;
25715;SDS011;13573;50.936;4.328;2022-10-18T04:16:15;24.83;;;17.37;;
25715;SDS011;13573;50.936;4.328;2022-10-18T04:18:43;24.83;;;17.47;;
25715;SDS011;13573;50.936;4.328;2022-10-18T04:21:09;21.47;;;14.33;;
25715;SDS011;13573;50.936;4.328;2022-10-18T04:23:38;24.70;;;15.87;;
25715;SDS011;13573;50.936;4.328;2022-10-18T04:26:07;19.73;;;14.40;;
25715;SDS011;13573;50.936;4.328;2022-10-18T04:28:34;27.93;;;17.70;;
25715;SDS011;13573;50.936;4.328;2022-10-18T04:31:03;21.70;;;16.33;;
25715;SDS011;13573;50.936;4.328;2022-10-18T04:33:31;24.10;;;15.80;;
25715;SDS011;13573;50.936;4.328;2022-10-18T04:35:58;26.37;;;17.03;;
25715;SDS011;13573;50.936;4.328;2022-10-18T04:38:27;34.53;;;18.67;;
25715;SDS011;13573;50.936;4.328;2022-10-18T04:40:54;28.90;;;19.37;;
25715;SDS011;13573;50.936;4.328;2022-10-18T04:43:22;25.63;;;17.50;;
25715;SDS011;13573;50.936;4.328;2022-10-18T04:45:50;31.27;;;20.20;;
25715;SDS011;13573;50.936;4.328;2022-10-18T04:48:17;33.60;;;19.63;;
25715;SDS011;13573;50.936;4.328;2022-10-18T04:50:46;31.17;;;19.67;;
25715;SDS011;13573;50.936;4.328;2022-10-18T04:53:14;30.23;;;18.50;;
25715;SDS011;13573;50.936;4.328;2022-10-18T04:55:43;23.63;;;15.73;;
25715;SDS011;13573;50.936;4.328;2022-10-18T04:58:11;23.97;;;15.33;;
25715;SDS011;13573;50.936;4.328;2022-10-18T05:00:38;25.83;;;16.87;;
25715;SDS011;13573;50.936;4.328;2022-10-18T05:03:05;33.53;;;19.93;;
25715;SDS011;13573;50.936;4.328;2022-10-18T05:05:33;32.60;;;19.97;;
25715;SDS011;13573;50.936;4.328;2022-10-18T05:08:00;22.67;;;16.93;;
25715;SDS011;13573;50.936;4.328;2022-10-18T05:10:28;26.83;;;17.90;;
25715;SDS011;13573;50.936;4.328;2022-10-18T05:12:55;21.00;;;14.80;;
25715;SDS011;13573;50.936;4.328;2022-10-18T05:15:21;23.87;;;15.53;;
25715;SDS011;13573;50.936;4.328;2022-10-18T05:17:48;28.53;;;15.50;;
25715;SDS011;13573;50.936;4.328;2022-10-18T05:20:16;24.90;;;15.93;;
25715;SDS011;13573;50.936;4.328;2022-10-18T05:22:43;28.57;;;18.07;;
25715;SDS011;13573;50.936;4.328;2022-10-18T05:25:11;22.40;;;15.23;;
25715;SDS011;13573;50.936;4.328;2022-10-18T05:27:40;24.10;;;16.90;;
25715;SDS011;13573;50.936;4.328;2022-10-18T05:30:06;34.43;;;19.93;;
25715;SDS011;13573;50.936;4.328;2022-10-18T05:32:33;23.37;;;16.20;;
25715;SDS011;13573;50.936;4.328;2022-10-18T05:35:00;29.37;;;17.57;;
25715;SDS011;13573;50.936;4.328;2022-10-18T05:37:28;25.17;;;16.63;;
25715;SDS011;13573;50.936;4.328;2022-10-18T05:39:59;33.20;;;18.90;;
25715;SDS011;13573;50.936;4.328;2022-10-18T05:42:27;26.93;;;17.30;;
25715;SDS011;13573;50.936;4.328;2022-10-18T05:44:54;33.37;;;20.67;;
25715;SDS011;13573;50.936;4.328;2022-10-18T05:47:21;28.67;;;19.47;;
25715;SDS011;13573;50.936;4.328;2022-10-18T05:49:49;25.93;;;16.50;;
25715;SDS011;13573;50.936;4.328;2022-10-18T05:52:17;32.10;;;19.87;;
25715;SDS011;13573;50.936;4.328;2022-10-18T05:54:46;28.33;;;16.60;;
25715;SDS011;13573;50.936;4.328;2022-10-18T05:57:13;22.03;;;15.87;;
25715;SDS011;13573;50.936;4.328;2022-10-18T05:59:41;22.43;;;16.67;;
25715;SDS011;13573;50.936;4.328;2022-10-18T06:02:08;22.73;;;16.93;;
25715;SDS011;13573;50.936;4.328;2022-10-18T06:04:36;26.07;;;16.80;;
25715;SDS011;13573;50.936;4.328;2022-10-18T06:07:06;22.20;;;16.30;;
25715;SDS011;13573;50.936;4.328;2022-10-18T06:09:36;30.07;;;18.20;;
25715;SDS011;13573;50.936;4.328;2022-10-18T06:12:03;34.20;;;19.43;;
25715;SDS011;13573;50.936;4.328;2022-10-18T06:14:30;38.87;;;20.80;;
25715;SDS011;13573;50.936;4.328;2022-10-18T06:16:57;25.57;;;17.23;;
25715;SDS011;13573;50.936;4.328;2022-10-18T06:19:24;39.23;;;20.00;;
25715;SDS011;13573;50.936;4.328;2022-10-18T06:21:51;22.90;;;16.10;;
25715;SDS011;13573;50.936;4.328;2022-10-18T06:24:18;33.27;;;18.77;;
25715;SDS011;13573;50.936;4.328;2022-10-18T06:26:46;39.80;;;22.03;;
25715;SDS011;13573;50.936;4.328;2022-10-18T06:29:16;39.27;;;23.20;;
25715;SDS011;13573;50.936;4.328;2022-10-18T06:31:43;30.10;;;20.07;;
25715;SDS011;13573;50.936;4.328;2022-10-18T06:34:10;26.30;;;17.43;;
25715;SDS011;13573;50.936;4.328;2022-10-18T06:36:36;25.87;;;17.27;;
25715;SDS011;13573;50.936;4.328;2022-10-18T06:39:03;30.57;;;17.30;;
25715;SDS011;13573;50.936;4.328;2022-10-18T06:41:29;29.30;;;17.63;;
25715;SDS011;13573;50.936;4.328;2022-10-18T06:43:57;26.40;;;17.57;;
25715;SDS011;13573;50.936;4.328;2022-10-18T06:46:25;23.63;;;16.47;;
25715;SDS011;13573;50.936;4.328;2022-10-18T06:48:51;33.60;;;18.13;;
25715;SDS011;13573;50.936;4.328;2022-10-18T06:51:18;46.77;;;19.87;;
25715;SDS011;13573;50.936;4.328;2022-10-18T06:53:45;46.67;;;21.63;;
25715;SDS011;13573;50.936;4.328;2022-10-18T06:56:12;44.20;;;23.30;;
25715;SDS011;13573;50.936;4.328;2022-10-18T06:58:39;40.10;;;22.37;;
25715;SDS011;13573;50.936;4.328;2022-10-18T07:01:07;38.13;;;22.13;;
25715;SDS011;13573;50.936;4.328;2022-10-18T07:03:33;27.60;;;17.60;;
25715;SDS011;13573;50.936;4.328;2022-10-18T07:06:01;26.20;;;17.77;;
25715;SDS011;13573;50.936;4.328;2022-10-18T07:08:27;25.20;;;16.23;;
25715;SDS011;13573;50.936;4.328;2022-10-18T07:10:55;24.50;;;15.70;;
25715;SDS011;13573;50.936;4.328;2022-10-18T07:13:23;23.43;;;15.93;;
25715;SDS011;13573;50.936;4.328;2022-10-18T07:18:23;21.07;;;15.83;;
25715;SDS011;13573;50.936;4.328;2022-10-18T07:20:50;21.83;;;16.33;;
25715;SDS011;13573;50.936;4.328;2022-10-18T07:23:17;19.27;;;13.53;;
25715;SDS011;13573;50.936;4.328;2022-10-18T07:25:45;21.10;;;13.53;;
25715;SDS011;13573;50.936;4.328;2022-10-18T07:28:12;17.30;;;11.93;;
25715;SDS011;13573;50.936;4.328;2022-10-18T07:30:38;21.87;;;13.57;;
25715;SDS011;13573;50.936;4.328;2022-10-18T07:33:05;30.23;;;13.30;;
25715;SDS011;13573;50.936;4.328;2022-10-18T07:35:31;23.40;;;11.70;;
25715;SDS011;13573;50.936;4.328;2022-10-18T07:37:58;16.53;;;11.67;;
25715;SDS011;13573;50.936;4.328;2022-10-18T07:40:25;18.60;;;10.80;;
25715;SDS011;13573;50.936;4.328;2022-10-18T07:42:52;17.47;;;10.53;;
25715;SDS011;13573;50.936;4.328;2022-10-18T07:45:18;13.13;;;8.80;;
25715;SDS011;13573;50.936;4.328;2022-10-18T07:47:45;14.87;;;10.13;;
25715;SDS011;13573;50.936;4.328;2022-10-18T07:50:12;18.77;;;10.93;;
25715;SDS011;13573;50.936;4.328;2022-10-18T07:52:38;13.65;;;9.45;;
25715;SDS011;13573;50.936;4.328;2022-10-18T07:55:05;13.88;;;8.10;;
25715;SDS011;13573;50.936;4.328;2022-10-18T07:57:33;13.65;;;6.87;;
25715;SDS011;13573;50.936;4.328;2022-10-18T08:00:00;17.23;;;7.45;;
25715;SDS011;13573;50.936;4.328;2022-10-18T08:02:27;13.32;;;5.85;;
25715;SDS011;13573;50.936;4.328;2022-10-18T08:04:54;13.93;;;6.45;;
25715;SDS011;13573;50.936;4.328;2022-10-18T08:07:22;11.15;;;4.28;;
25715;SDS011;13573;50.936;4.328;2022-10-18T08:09:50;11.60;;;3.72;;
25715;SDS011;13573;50.936;4.328;2022-10-18T08:12:19;15.03;;;5.50;;
25715;SDS011;13573;50.936;4.328;2022-10-18T08:14:45;13.93;;;4.28;;
25715;SDS011;13573;50.936;4.328;2022-10-18T08:17:12;14.83;;;4.62;;
25715;SDS011;13573;50.936;4.328;2022-10-18T08:19:39;17.55;;;5.15;;
25715;SDS011;13573;50.936;4.328;2022-10-18T08:22:06;14.95;;;5.37;;
25715;SDS011;13573;50.936;4.328;2022-10-18T08:24:32;12.53;;;5.80;;
25715;SDS011;13573;50.936;4.328;2022-10-18T08:26:59;23.20;;;6.53;;
25715;SDS011;13573;50.936;4.328;2022-10-18T08:29:25;17.20;;;5.42;;
25715;SDS011;13573;50.936;4.328;2022-10-18T08:31:52;14.20;;;5.95;;
25715;SDS011;13573;50.936;4.328;2022-10-18T08:34:19;13.72;;;5.85;;
25715;SDS011;13573;50.936;4.328;2022-10-18T08:36:46;12.45;;;6.33;;
25715;SDS011;13573;50.936;4.328;2022-10-18T08:39:12;13.60;;;6.22;;
25715;SDS011;13573;50.936;4.328;2022-10-18T08:44:17;18.77;;;8.00;;
25715;SDS011;13573;50.936;4.328;2022-10-18T08:46:52;13.62;;;7.37;;
25715;SDS011;13573;50.936;4.328;2022-10-18T08:49:27;16.65;;;8.28;;
25715;SDS011;13573;50.936;4.328;2022-10-18T08:51:57;14.45;;;9.23;;
25715;SDS011;13573;50.936;4.328;2022-10-18T08:54:29;20.32;;;10.23;;
25715;SDS011;13573;50.936;4.328;2022-10-18T08:57:00;15.10;;;9.85;;
25715;SDS011;13573;50.936;4.328;2022-10-18T08:59:30;18.35;;;11.25;;
25715;SDS011;13573;50.936;4.328;2022-10-18T09:02:03;17.87;;;10.33;;
25715;SDS011;13573;50.936;4.328;2022-10-18T09:04:39;24.73;;;11.10;;
25715;SDS011;13573;50.936;4.328;2022-10-18T09:07:13;23.37;;;11.63;;
25715;SDS011;13573;50.936;4.328;2022-10-18T09:12:31;22.00;;;11.97;;
25715;SDS011;13573;50.936;4.328;2022-10-18T09:15:03;19.77;;;10.53;;
25715;SDS011;13573;50.936;4.328;2022-10-18T09:20:13;22.60;;;8.70;;
25715;SDS011;13573;50.936;4.328;2022-10-18T09:22:50;18.10;;;8.80;;
25715;SDS011;13573;50.936;4.328;2022-10-18T09:25:24;22.03;;;8.57;;
25715;SDS011;13573;50.936;4.328;2022-10-18T09:28:12;17.15;;;6.90;;
25715;SDS011;13573;50.936;4.328;2022-10-18T09:30:57;16.10;;;8.25;;
25715;SDS011;13573;50.936;4.328;2022-10-18T09:33:40;14.43;;;6.53;;
25715;SDS011;13573;50.936;4.328;2022-10-18T09:36:29;19.57;;;5.67;;
25715;SDS011;13573;50.936;4.328;2022-10-18T09:39:03;21.55;;;7.05;;
25715;SDS011;13573;50.936;4.328;2022-10-18T09:41:46;18.82;;;6.65;;
25715;SDS011;13573;50.936;4.328;2022-10-18T09:44:18;17.82;;;6.75;;
25715;SDS011;13573;50.936;4.328;2022-10-18T09:46:52;23.25;;;6.53;;
25715;SDS011;13573;50.936;4.328;2022-10-18T09:49:27;19.77;;;6.80;;
25715;SDS011;13573;50.936;4.328;2022-10-18T09:51:58;20.10;;;6.12;;
25715;SDS011;13573;50.936;4.328;2022-10-18T09:57:17;17.98;;;5.75;;
25715;SDS011;13573;50.936;4.328;2022-10-18T09:59:52;13.58;;;5.55;;
25715;SDS011;13573;50.936;4.328;2022-10-18T10:02:21;13.10;;;5.10;;
25715;SDS011;13573;50.936;4.328;2022-10-18T10:04:48;13.65;;;4.70;;
25715;SDS011;13573;50.936;4.328;2022-10-18T10:07:17;14.00;;;4.08;;
25715;SDS011;13573;50.936;4.328;2022-10-18T10:09:55;11.93;;;4.17;;
25715;SDS011;13573;50.936;4.328;2022-10-18T10:12:28;17.70;;;4.12;;
25715;SDS011;13573;50.936;4.328;2022-10-18T10:15:00;11.55;;;3.92;;
25715;SDS011;13573;50.936;4.328;2022-10-18T10:17:23;14.13;;;3.67;;
25715;SDS011;13573;50.936;4.328;2022-10-18T10:20:03;12.37;;;3.83;;
25715;SDS011;13573;50.936;4.328;2022-10-18T10:22:34;14.85;;;3.70;;
25715;SDS011;13573;50.936;4.328;2022-10-18T10:25:03;17.75;;;4.15;;
25715;SDS011;13573;50.936;4.328;2022-10-18T10:27:32;11.60;;;3.90;;
25715;SDS011;13573;50.936;4.328;2022-10-18T10:30:23;14.00;;;3.65;;
25715;SDS011;13573;50.936;4.328;2022-10-18T10:32:51;16.52;;;4.40;;
25715;SDS011;13573;50.936;4.328;2022-10-18T10:35:24;18.98;;;4.22;;
25715;SDS011;13573;50.936;4.328;2022-10-18T10:37:58;13.22;;;3.95;;
25715;SDS011;13573;50.936;4.328;2022-10-18T10:40:27;13.72;;;3.25;;
25715;SDS011;13573;50.936;4.328;2022-10-18T10:42:59;12.70;;;2.60;;
25715;SDS011;13573;50.936;4.328;2022-10-18T10:45:34;16.77;;;3.77;;
25715;SDS011;13573;50.936;4.328;2022-10-18T10:48:05;25.57;;;3.83;;
25715;SDS011;13573;50.936;4.328;2022-10-18T10:50:46;16.17;;;3.50;;
25715;SDS011;13573;50.936;4.328;2022-10-18T10:53:04;20.27;;;3.67;;
25715;SDS011;13573;50.936;4.328;2022-10-18T10:55:32;14.25;;;3.08;;
25715;SDS011;13573;50.936;4.328;2022-10-18T10:58:00;10.90;;;2.80;;
25715;SDS011;13573;50.936;4.328;2022-10-18T11:00:37;17.87;;;3.60;;
25715;SDS011;13573;50.936;4.328;2022-10-18T11:03:12;12.95;;;3.20;;
25715;SDS011;13573;50.936;4.328;2022-10-18T11:05:45;18.77;;;3.90;;
25715;SDS011;13573;50.936;4.328;2022-10-18T11:08:15;13.43;;;2.87;;
25715;SDS011;13573;50.936;4.328;2022-10-18T11:10:59;15.15;;;3.40;;
25715;SDS011;13573;50.936;4.328;2022-10-18T11:13:38;16.42;;;3.05;;
25715;SDS011;13573;50.936;4.328;2022-10-18T11:16:11;14.25;;;2.90;;
25715;SDS011;13573;50.936;4.328;2022-10-18T11:18:42;14.30;;;3.02;;
25715;SDS011;13573;50.936;4.328;2022-10-18T11:21:16;13.32;;;2.90;;
25715;SDS011;13573;50.936;4.328;2022-10-18T11:23:46;10.00;;;2.47;;
25715;SDS011;13573;50.936;4.328;2022-10-18T11:26:23;10.23;;;2.02;;
25715;SDS011;13573;50.936;4.328;2022-10-18T11:29:08;8.60;;;2.00;;
25715;SDS011;13573;50.936;4.328;2022-10-18T11:31:44;7.85;;;2.02;;
25715;SDS011;13573;50.936;4.328;2022-10-18T11:34:23;13.05;;;2.58;;
25715;SDS011;13573;50.936;4.328;2022-10-18T11:36:57;12.20;;;2.33;;
25715;SDS011;13573;50.936;4.328;2022-10-18T11:39:47;9.75;;;3.58;;
25715;SDS011;13573;50.936;4.328;2022-10-18T11:45:04;9.55;;;2.25;;
25715;SDS011;13573;50.936;4.328;2022-10-18T11:47:37;8.38;;;2.22;;
25715;SDS011;13573;50.936;4.328;2022-10-18T11:50:11;9.15;;;2.42;;
25715;SDS011;13573;50.936;4.328;2022-10-18T11:52:40;10.30;;;2.15;;
25715;SDS011;13573;50.936;4.328;2022-10-18T11:55:45;11.63;;;2.08;;
25715;SDS011;13573;50.936;4.328;2022-10-18T11:58:12;14.78;;;2.83;;
25715;SDS011;13573;50.936;4.328;2022-10-18T12:03:21;10.50;;;2.00;;
25715;SDS011;13573;50.936;4.328;2022-10-18T12:05:47;7.25;;;2.05;;
25715;SDS011;13573;50.936;4.328;2022-10-18T12:08:21;6.55;;;2.33;;
25715;SDS011;13573;50.936;4.328;2022-10-18T12:10:51;7.90;;;1.70;;
25715;SDS011;13573;50.936;4.328;2022-10-18T12:13:39;11.65;;;2.30;;
25715;SDS011;13573;50.936;4.328;2022-10-18T12:16:12;6.83;;;1.57;;
25715;SDS011;13573;50.936;4.328;2022-10-18T12:18:44;6.08;;;1.60;;
25715;SDS011;13573;50.936;4.328;2022-10-18T12:21:11;5.80;;;1.50;;
25715;SDS011;13573;50.936;4.328;2022-10-18T12:23:44;9.78;;;2.08;;
25715;SDS011;13573;50.936;4.328;2022-10-18T12:26:13;11.48;;;2.22;;
25715;SDS011;13573;50.936;4.328;2022-10-18T12:29:15;8.73;;;2.72;;
25715;SDS011;13573;50.936;4.328;2022-10-18T12:31:29;7.62;;;1.92;;
25715;SDS011;13573;50.936;4.328;2022-10-18T12:36:48;13.18;;;2.45;;
25715;SDS011;13573;50.936;4.328;2022-10-18T12:39:19;9.75;;;2.20;;
25715;SDS011;13573;50.936;4.328;2022-10-18T12:41:47;12.82;;;2.35;;
25715;SDS011;13573;50.936;4.328;2022-10-18T12:44:18;22.05;;;3.90;;
25715;SDS011;13573;50.936;4.328;2022-10-18T12:46:51;9.98;;;2.33;;
25715;SDS011;13573;50.936;4.328;2022-10-18T12:49:23;10.35;;;2.05;;
25715;SDS011;13573;50.936;4.328;2022-10-18T12:51:57;8.15;;;2.40;;
25715;SDS011;13573;50.936;4.328;2022-10-18T12:54:28;11.33;;;1.98;;
25715;SDS011;13573;50.936;4.328;2022-10-18T12:57:01;12.45;;;2.50;;
25715;SDS011;13573;50.936;4.328;2022-10-18T12:59:38;9.98;;;2.33;;
25715;SDS011;13573;50.936;4.328;2022-10-18T13:02:07;9.75;;;2.40;;
25715;SDS011;13573;50.936;4.328;2022-10-18T13:04:34;10.75;;;2.15;;
25715;SDS011;13573;50.936;4.328;2022-10-18T13:07:10;11.03;;;2.20;;
25715;SDS011;13573;50.936;4.328;2022-10-18T13:09:35;10.60;;;2.75;;
25715;SDS011;13573;50.936;4.328;2022-10-18T13:13:15;11.28;;;2.27;;
25715;SDS011;13573;50.936;4.328;2022-10-18T13:15:05;10.05;;;2.40;;
25715;SDS011;13573;50.936;4.328;2022-10-18T13:20:20;11.83;;;2.58;;
25715;SDS011;13573;50.936;4.328;2022-10-18T13:23:01;8.90;;;2.17;;
25715;SDS011;13573;50.936;4.328;2022-10-18T13:25:45;8.10;;;2.08;;
25715;SDS011;13573;50.936;4.328;2022-10-18T13:28:18;12.73;;;2.37;;
25715;SDS011;13573;50.936;4.328;2022-10-18T13:33:28;10.80;;;2.10;;
25715;SDS011;13573;50.936;4.328;2022-10-18T13:35:55;9.93;;;2.35;;
25715;SDS011;13573;50.936;4.328;2022-10-18T13:41:05;7.50;;;2.42;;
25715;SDS011;13573;50.936;4.328;2022-10-18T13:46:13;10.40;;;2.15;;
25715;SDS011;13573;50.936;4.328;2022-10-18T13:48:43;10.13;;;2.47;;
25715;SDS011;13573;50.936;4.328;2022-10-18T13:51:24;9.18;;;2.12;;
25715;SDS011;13573;50.936;4.328;2022-10-18T13:54:05;13.20;;;2.60;;
25715;SDS011;13573;50.936;4.328;2022-10-18T13:56:45;13.08;;;3.15;;
25715;SDS011;13573;50.936;4.328;2022-10-18T13:59:32;7.20;;;2.05;;
25715;SDS011;13573;50.936;4.328;2022-10-18T14:02:09;14.25;;;2.50;;
25715;SDS011;13573;50.936;4.328;2022-10-18T14:07:14;9.90;;;2.35;;
25715;SDS011;13573;50.936;4.328;2022-10-18T14:09:46;11.35;;;2.27;;
25715;SDS011;13573;50.936;4.328;2022-10-18T14:14:53;16.17;;;2.85;;
25715;SDS011;13573;50.936;4.328;2022-10-18T14:17:31;10.90;;;2.72;;
25715;SDS011;13573;50.936;4.328;2022-10-18T14:20:04;14.43;;;3.10;;
25715;SDS011;13573;50.936;4.328;2022-10-18T14:22:38;10.60;;;2.35;;
25715;SDS011;13573;50.936;4.328;2022-10-18T14:27:40;12.93;;;2.52;;
25715;SDS011;13573;50.936;4.328;2022-10-18T14:30:12;10.10;;;2.65;;
25715;SDS011;13573;50.936;4.328;2022-10-18T14:32:43;10.08;;;2.15;;
25715;SDS011;13573;50.936;4.328;2022-10-18T14:35:20;10.88;;;2.62;;
25715;SDS011;13573;50.936;4.328;2022-10-18T14:37:50;8.75;;;2.12;;
25715;SDS011;13573;50.936;4.328;2022-10-18T14:40:25;8.45;;;2.37;;
25715;SDS011;13573;50.936;4.328;2022-10-18T14:42:52;11.08;;;2.25;;
25715;SDS011;13573;50.936;4.328;2022-10-18T14:45:19;11.40;;;2.37;;
25715;SDS011;13573;50.936;4.328;2022-10-18T14:47:47;16.23;;;2.65;;
25715;SDS011;13573;50.936;4.328;2022-10-18T14:50:19;13.08;;;2.77;;
25715;SDS011;13573;50.936;4.328;2022-10-18T14:52:48;11.70;;;2.52;;
25715;SDS011;13573;50.936;4.328;2022-10-18T14:55:20;7.33;;;2.00;;
25715;SDS011;13573;50.936;4.328;2022-10-18T14:57:50;13.30;;;2.95;;
25715;SDS011;13573;50.936;4.328;2022-10-18T15:00:21;12.50;;;2.62;;
25715;SDS011;13573;50.936;4.328;2022-10-18T15:02:50;8.53;;;2.08;;
25715;SDS011;13573;50.936;4.328;2022-10-18T15:05:19;15.32;;;2.62;;
25715;SDS011;13573;50.936;4.328;2022-10-18T15:07:46;11.30;;;2.55;;
25715;SDS011;13573;50.936;4.328;2022-10-18T15:10:17;10.07;;;2.10;;
25715;SDS011;13573;50.936;4.328;2022-10-18T15:12:46;9.53;;;2.23;;
25715;SDS011;13573;50.936;4.328;2022-10-18T15:15:19;9.50;;;2.10;;
25715;SDS011;13573;50.936;4.328;2022-10-18T15:17:47;10.90;;;2.37;;
25715;SDS011;13573;50.936;4.328;2022-10-18T15:25:15;21.50;;;3.00;;
25715;SDS011;13573;50.936;4.328;2022-10-18T15:27:48;15.03;;;2.23;;
25715;SDS011;13573;50.936;4.328;2022-10-18T15:30:23;9.10;;;2.40;;
25715;SDS011;13573;50.936;4.328;2022-10-18T15:32:54;17.60;;;2.47;;
25715;SDS011;13573;50.936;4.328;2022-10-18T15:35:26;12.77;;;2.67;;
25715;SDS011;13573;50.936;4.328;2022-10-18T15:37:56;11.47;;;2.83;;
25715;SDS011;13573;50.936;4.328;2022-10-18T15:43:01;13.67;;;4.90;;
25715;SDS011;13573;50.936;4.328;2022-10-18T16:11:14;13.50;;;3.70;;
25715;SDS011;13573;50.936;4.328;2022-10-18T16:13:45;14.70;;;3.30;;
25715;SDS011;13573;50.936;4.328;2022-10-18T16:16:13;15.10;;;3.10;;
25715;SDS011;13573;50.936;4.328;2022-10-18T16:18:43;13.20;;;3.40;;
25715;SDS011;13573;50.936;4.328;2022-10-18T16:21:16;18.20;;;3.70;;